sensor_id;sensor_type;location;lat;lon;timestamp;pressure;altitude;pressure_sealevel;temperature;humidity
28921;BME280;16035;53.594;9.952;2024-01-15T00:01:09;99147.97;;;2.89;77.68
28921;BME280;16035;53.594;9.952;2024-01-15T00:03:10;99150.25;;;2.97;77.54
28921;BME280;16035;53.594;9.952;2024-01-15T00:05:10;99150.03;;;3.03;77.74
28921;BME280;16035;53.594;9.952;2024-01-15T00:07:11;99136.31;;;3.00;77.48
28921;BME280;16035;53.594;9.952;2024-01-15T00:09:11;99145.69;;;2.97;77.38
28921;BME280;16035;53.594;9.952;2024-01-15T00:11:11;99147.00;;;2.95;77.35
28921;BME280;16035;53.594;9.952;2024-01-15T00:13:12;99145.34;;;2.94;77.46
28921;BME280;16035;53.594;9.952;2024-01-15T00:15:12;99147.06;;;3.00;77.42
28921;BME280;16035;53.594;9.952;2024-01-15T00:17:12;99131.78;;;3.00;77.26
28921;BME280;16035;53.594;9.952;2024-01-15T00:19:13;99140.25;;;2.92;77.40
28921;BME280;16035;53.594;9.952;2024-01-15T00:21:13;99139.19;;;2.93;77.52
28921;BME280;16035;53.594;9.952;2024-01-15T00:23:13;99134.44;;;3.00;77.51
28921;BME280;16035;53.594;9.952;2024-01-15T00:25:14;99134.44;;;3.00;77.37
28921;BME280;16035;53.594;9.952;2024-01-15T00:27:14;99135.00;;;3.02;77.43
28921;BME280;16035;53.594;9.952;2024-01-15T00:29:14;99127.47;;;2.99;77.43
28921;BME280;16035;53.594;9.952;2024-01-15T00:31:16;99113.59;;;2.86;77.47
28921;BME280;16035;53.594;9.952;2024-01-15T00:33:17;99103.94;;;2.85;77.76
28921;BME280;16035;53.594;9.952;2024-01-15T00:35:17;99104.56;;;2.92;77.80
28921;BME280;16035;53.594;9.952;2024-01-15T00:37:17;99098.19;;;2.98;77.56
28921;BME280;16035;53.594;9.952;2024-01-15T00:39:18;99090.44;;;3.01;77.63
28921;BME280;16035;53.594;9.952;2024-01-15T00:41:18;99103.53;;;2.98;77.54
28921;BME280;16035;53.594;9.952;2024-01-15T00:43:18;99101.88;;;2.92;77.61
28921;BME280;16035;53.594;9.952;2024-01-15T00:45:19;99093.53;;;2.88;77.71
28921;BME280;16035;53.594;9.952;2024-01-15T00:47:19;99109.06;;;2.86;77.63
28921;BME280;16035;53.594;9.952;2024-01-15T00:49:20;99091.78;;;2.77;77.85
28921;BME280;16035;53.594;9.952;2024-01-15T00:51:20;99086.34;;;2.72;78.11
28921;BME280;16035;53.594;9.952;2024-01-15T00:53:20;99084.59;;;2.83;78.04
28921;BME280;16035;53.594;9.952;2024-01-15T00:55:23;99092.28;;;2.96;77.69
28921;BME280;16035;53.594;9.952;2024-01-15T00:57:24;99086.69;;;3.02;77.69
28921;BME280;16035;53.594;9.952;2024-01-15T00:59:24;99087.72;;;2.96;77.09
28921;BME280;16035;53.594;9.952;2024-01-15T01:01:24;99079.25;;;2.83;77.42
28921;BME280;16035;53.594;9.952;2024-01-15T01:03:25;99071.63;;;2.74;77.78
28921;BME280;16035;53.594;9.952;2024-01-15T01:05:25;99075.59;;;2.72;77.90
28921;BME280;16035;53.594;9.952;2024-01-15T01:07:25;99072.69;;;2.73;78.02
28921;BME280;16035;53.594;9.952;2024-01-15T01:09:25;99059.81;;;2.75;77.79
28921;BME280;16035;53.594;9.952;2024-01-15T01:11:29;99057.66;;;2.72;77.72
28921;BME280;16035;53.594;9.952;2024-01-15T01:13:29;99062.78;;;2.74;77.85
28921;BME280;16035;53.594;9.952;2024-01-15T01:15:29;99050.16;;;2.74;77.87
28921;BME280;16035;53.594;9.952;2024-01-15T01:17:30;99044.00;;;2.74;77.97
28921;BME280;16035;53.594;9.952;2024-01-15T01:19:30;99027.31;;;2.72;77.66
28921;BME280;16035;53.594;9.952;2024-01-15T01:21:31;99035.47;;;2.77;78.27
28921;BME280;16035;53.594;9.952;2024-01-15T01:23:31;99034.75;;;2.87;77.87
28921;BME280;16035;53.594;9.952;2024-01-15T01:25:32;99025.00;;;2.81;77.79
28921;BME280;16035;53.594;9.952;2024-01-15T01:27:32;99015.66;;;2.83;77.97
28921;BME280;16035;53.594;9.952;2024-01-15T01:29:33;99006.09;;;2.92;77.85
28921;BME280;16035;53.594;9.952;2024-01-15T01:31:33;99022.28;;;3.02;77.33
28921;BME280;16035;53.594;9.952;2024-01-15T01:33:33;99029.25;;;3.03;77.52
28921;BME280;16035;53.594;9.952;2024-01-15T01:35:33;99018.59;;;3.09;77.56
28921;BME280;16035;53.594;9.952;2024-01-15T01:37:34;99020.53;;;3.13;77.88
28921;BME280;16035;53.594;9.952;2024-01-15T01:39:34;99025.13;;;3.18;77.44
28921;BME280;16035;53.594;9.952;2024-01-15T01:41:35;99026.78;;;3.24;77.46
28921;BME280;16035;53.594;9.952;2024-01-15T01:43:35;99034.56;;;3.25;77.45
28921;BME280;16035;53.594;9.952;2024-01-15T01:45:36;99038.13;;;3.31;77.35
28921;BME280;16035;53.594;9.952;2024-01-15T01:47:37;99042.44;;;3.32;77.21
28921;BME280;16035;53.594;9.952;2024-01-15T01:49:37;99036.44;;;3.25;77.20
28921;BME280;16035;53.594;9.952;2024-01-15T01:51:38;99037.78;;;3.22;77.46
28921;BME280;16035;53.594;9.952;2024-01-15T01:53:39;99038.50;;;3.13;77.35
28921;BME280;16035;53.594;9.952;2024-01-15T01:55:40;99034.19;;;3.12;77.56
28921;BME280;16035;53.594;9.952;2024-01-15T01:57:41;99028.78;;;3.07;77.05
28921;BME280;16035;53.594;9.952;2024-01-15T01:59:42;99027.16;;;3.06;77.62
28921;BME280;16035;53.594;9.952;2024-01-15T02:01:44;99009.63;;;2.98;77.63
28921;BME280;16035;53.594;9.952;2024-01-15T02:03:44;99028.47;;;3.03;77.84
28921;BME280;16035;53.594;9.952;2024-01-15T02:05:47;99031.75;;;3.10;77.74
28921;BME280;16035;53.594;9.952;2024-01-15T02:07:49;99022.69;;;3.16;77.28
28921;BME280;16035;53.594;9.952;2024-01-15T02:09:49;99007.34;;;3.12;77.20
28921;BME280;16035;53.594;9.952;2024-01-15T02:11:50;99015.16;;;3.13;77.82
28921;BME280;16035;53.594;9.952;2024-01-15T02:13:51;99014.22;;;3.02;77.56
28921;BME280;16035;53.594;9.952;2024-01-15T02:15:51;99019.28;;;2.99;77.34
28921;BME280;16035;53.594;9.952;2024-01-15T02:18:03;99015.81;;;2.98;77.77
28921;BME280;16035;53.594;9.952;2024-01-15T02:20:04;99016.31;;;2.95;77.72
28921;BME280;16035;53.594;9.952;2024-01-15T02:22:04;99021.06;;;2.88;77.70
28921;BME280;16035;53.594;9.952;2024-01-15T02:24:05;98978.84;;;2.78;78.08
28921;BME280;16035;53.594;9.952;2024-01-15T02:26:06;99038.06;;;2.72;78.27
28921;BME280;16035;53.594;9.952;2024-01-15T02:28:09;99048.34;;;2.80;78.41
28921;BME280;16035;53.594;9.952;2024-01-15T02:30:11;99029.38;;;2.87;78.54
28921;BME280;16035;53.594;9.952;2024-01-15T02:32:12;99008.47;;;2.89;78.08
28921;BME280;16035;53.594;9.952;2024-01-15T02:34:13;99004.22;;;2.93;78.23
28921;BME280;16035;53.594;9.952;2024-01-15T02:36:13;99004.88;;;3.05;78.11
28921;BME280;16035;53.594;9.952;2024-01-15T02:38:13;99016.97;;;3.08;77.99
28921;BME280;16035;53.594;9.952;2024-01-15T02:40:13;99027.66;;;3.02;77.75
28921;BME280;16035;53.594;9.952;2024-01-15T02:42:14;99026.03;;;3.01;78.17
28921;BME280;16035;53.594;9.952;2024-01-15T02:44:14;99018.00;;;3.01;78.07
28921;BME280;16035;53.594;9.952;2024-01-15T02:46:14;99013.47;;;3.07;78.22
28921;BME280;16035;53.594;9.952;2024-01-15T02:48:16;99005.84;;;2.94;78.18
28921;BME280;16035;53.594;9.952;2024-01-15T02:50:16;99010.44;;;2.98;78.40
28921;BME280;16035;53.594;9.952;2024-01-15T02:52:17;99007.06;;;3.08;78.15
28921;BME280;16035;53.594;9.952;2024-01-15T02:54:17;98997.94;;;3.09;78.37
28921;BME280;16035;53.594;9.952;2024-01-15T02:56:18;99023.44;;;3.12;78.13
28921;BME280;16035;53.594;9.952;2024-01-15T02:58:18;99018.84;;;3.07;78.49
28921;BME280;16035;53.594;9.952;2024-01-15T03:00:18;99015.03;;;3.03;78.52
28921;BME280;16035;53.594;9.952;2024-01-15T03:02:19;99017.22;;;3.06;78.54
28921;BME280;16035;53.594;9.952;2024-01-15T03:04:19;99010.28;;;3.10;78.13
28921;BME280;16035;53.594;9.952;2024-01-15T03:06:19;99010.03;;;3.12;78.22
28921;BME280;16035;53.594;9.952;2024-01-15T03:08:20;99020.75;;;3.12;78.13
28921;BME280;16035;53.594;9.952;2024-01-15T03:10:20;99004.91;;;3.10;78.02
28921;BME280;16035;53.594;9.952;2024-01-15T03:12:20;99022.09;;;3.09;78.34
28921;BME280;16035;53.594;9.952;2024-01-15T03:14:21;99029.88;;;3.11;78.19
28921;BME280;16035;53.594;9.952;2024-01-15T03:16:21;99018.38;;;3.15;78.35
28921;BME280;16035;53.594;9.952;2024-01-15T03:18:21;99028.94;;;3.22;78.37
28921;BME280;16035;53.594;9.952;2024-01-15T03:20:22;99022.00;;;3.26;78.50
28921;BME280;16035;53.594;9.952;2024-01-15T03:22:22;99018.22;;;3.27;78.11
28921;BME280;16035;53.594;9.952;2024-01-15T03:24:22;99024.59;;;3.21;78.41
28921;BME280;16035;53.594;9.952;2024-01-15T03:26:23;99033.72;;;3.20;78.29
28921;BME280;16035;53.594;9.952;2024-01-15T03:28:23;99029.16;;;3.20;78.67
28921;BME280;16035;53.594;9.952;2024-01-15T03:30:24;99036.72;;;3.23;78.10
28921;BME280;16035;53.594;9.952;2024-01-15T03:32:24;99044.47;;;3.20;78.23
28921;BME280;16035;53.594;9.952;2024-01-15T03:34:24;99038.69;;;3.06;78.18
28921;BME280;16035;53.594;9.952;2024-01-15T03:36:25;99037.09;;;3.05;78.36
28921;BME280;16035;53.594;9.952;2024-01-15T03:38:28;99033.06;;;3.08;78.77
28921;BME280;16035;53.594;9.952;2024-01-15T03:40:28;99033.34;;;3.06;78.21
28921;BME280;16035;53.594;9.952;2024-01-15T03:42:28;99030.34;;;3.02;78.41
28921;BME280;16035;53.594;9.952;2024-01-15T03:44:29;99034.94;;;3.07;78.41
28921;BME280;16035;53.594;9.952;2024-01-15T03:46:29;99035.47;;;3.04;78.47
28921;BME280;16035;53.594;9.952;2024-01-15T03:48:30;99040.75;;;2.99;78.49
28921;BME280;16035;53.594;9.952;2024-01-15T03:50:30;99046.66;;;2.96;78.49
28921;BME280;16035;53.594;9.952;2024-01-15T03:52:30;99051.22;;;2.95;78.43
28921;BME280;16035;53.594;9.952;2024-01-15T03:54:31;99055.81;;;3.00;78.36
28921;BME280;16035;53.594;9.952;2024-01-15T03:56:31;99048.06;;;3.03;78.59
28921;BME280;16035;53.594;9.952;2024-01-15T03:58:31;99052.13;;;3.06;78.30
28921;BME280;16035;53.594;9.952;2024-01-15T04:00:32;99047.25;;;3.03;78.10
28921;BME280;16035;53.594;9.952;2024-01-15T04:02:32;99055.56;;;3.01;78.36
28921;BME280;16035;53.594;9.952;2024-01-15T04:04:32;99048.06;;;3.03;77.89
28921;BME280;16035;53.594;9.952;2024-01-15T04:06:33;99048.31;;;3.02;78.16
28921;BME280;16035;53.594;9.952;2024-01-15T04:08:33;99043.44;;;2.99;77.98
28921;BME280;16035;53.594;9.952;2024-01-15T04:10:33;99046.38;;;2.97;78.27
28921;BME280;16035;53.594;9.952;2024-01-15T04:12:33;99051.56;;;3.04;77.97
28921;BME280;16035;53.594;9.952;2024-01-15T04:14:34;99043.31;;;3.11;78.19
28921;BME280;16035;53.594;9.952;2024-01-15T04:16:34;99050.84;;;3.14;77.95
28921;BME280;16035;53.594;9.952;2024-01-15T04:18:34;99046.00;;;3.11;77.84
28921;BME280;16035;53.594;9.952;2024-01-15T04:20:35;99048.72;;;3.16;77.79
28921;BME280;16035;53.594;9.952;2024-01-15T04:22:35;99049.53;;;3.16;77.46
28921;BME280;16035;53.594;9.952;2024-01-15T04:24:36;99053.84;;;3.17;77.56
28921;BME280;16035;53.594;9.952;2024-01-15T04:26:36;99051.16;;;3.17;77.51
28921;BME280;16035;53.594;9.952;2024-01-15T04:28:36;99050.63;;;3.20;77.37
28921;BME280;16035;53.594;9.952;2024-01-15T04:30:37;99044.72;;;3.18;77.46
28921;BME280;16035;53.594;9.952;2024-01-15T04:32:37;99050.59;;;3.15;77.29
28921;BME280;16035;53.594;9.952;2024-01-15T04:34:37;99054.66;;;3.18;77.44
28921;BME280;16035;53.594;9.952;2024-01-15T04:36:41;99053.09;;;3.22;77.45
28921;BME280;16035;53.594;9.952;2024-01-15T04:38:41;99056.38;;;3.29;77.17
28921;BME280;16035;53.594;9.952;2024-01-15T04:40:42;99052.81;;;3.23;76.97
28921;BME280;16035;53.594;9.952;2024-01-15T04:42:42;99049.56;;;3.21;77.17
28921;BME280;16035;53.594;9.952;2024-01-15T04:44:42;99055.00;;;3.26;77.05
28921;BME280;16035;53.594;9.952;2024-01-15T04:46:43;99054.75;;;3.28;77.33
28921;BME280;16035;53.594;9.952;2024-01-15T04:48:44;99053.19;;;3.32;77.16
28921;BME280;16035;53.594;9.952;2024-01-15T04:50:44;99051.59;;;3.36;77.04
28921;BME280;16035;53.594;9.952;2024-01-15T04:52:44;99050.00;;;3.35;76.85
28921;BME280;16035;53.594;9.952;2024-01-15T04:54:44;99051.59;;;3.36;76.71
28921;BME280;16035;53.594;9.952;2024-01-15T04:56:45;99053.47;;;3.36;76.77
28921;BME280;16035;53.594;9.952;2024-01-15T04:58:45;99056.66;;;3.33;76.95
28921;BME280;16035;53.594;9.952;2024-01-15T05:00:46;99051.59;;;3.36;76.84
28921;BME280;16035;53.594;9.952;2024-01-15T05:02:47;99050.53;;;3.37;76.69
28921;BME280;16035;53.594;9.952;2024-01-15T05:04:47;99050.53;;;3.37;76.74
28921;BME280;16035;53.594;9.952;2024-01-15T05:06:47;99050.00;;;3.35;76.43
28921;BME280;16035;53.594;9.952;2024-01-15T05:08:48;99046.22;;;3.36;76.78
28921;BME280;16035;53.594;9.952;2024-01-15T05:10:48;99048.97;;;3.41;76.32
28921;BME280;16035;53.594;9.952;2024-01-15T05:12:48;99050.84;;;3.41;76.14
28921;BME280;16035;53.594;9.952;2024-01-15T05:14:48;99051.91;;;3.40;76.36
28921;BME280;16035;53.594;9.952;2024-01-15T05:16:49;99047.00;;;3.32;76.33
28921;BME280;16035;53.594;9.952;2024-01-15T05:18:49;99054.75;;;3.28;76.74
28921;BME280;16035;53.594;9.952;2024-01-15T05:20:50;99039.19;;;3.30;76.65
28921;BME280;16035;53.594;9.952;2024-01-15T05:22:52;99056.66;;;3.33;76.85
28921;BME280;16035;53.594;9.952;2024-01-15T05:24:52;99043.56;;;3.36;76.82
28921;BME280;16035;53.594;9.952;2024-01-15T05:26:53;99051.03;;;3.34;76.88
28921;BME280;16035;53.594;9.952;2024-01-15T05:28:53;99056.41;;;3.34;76.52
28921;BME280;16035;53.594;9.952;2024-01-15T05:30:53;99060.44;;;3.32;76.65
28921;BME280;16035;53.594;9.952;2024-01-15T05:32:55;99053.72;;;3.34;76.49
28921;BME280;16035;53.594;9.952;2024-01-15T05:34:56;99057.50;;;3.38;76.51
28921;BME280;16035;53.594;9.952;2024-01-15T05:36:56;99057.81;;;3.42;76.50
28921;BME280;16035;53.594;9.952;2024-01-15T05:38:56;99056.78;;;3.48;76.47
28921;BME280;16035;53.594;9.952;2024-01-15T05:40:56;99054.41;;;3.51;76.68
28921;BME280;16035;53.594;9.952;2024-01-15T05:42:57;99049.06;;;3.57;76.47
28921;BME280;16035;53.594;9.952;2024-01-15T05:44:57;99059.28;;;3.54;76.55
28921;BME280;16035;53.594;9.952;2024-01-15T05:46:59;99052.28;;;3.53;76.36
28921;BME280;16035;53.594;9.952;2024-01-15T05:49:00;99061.41;;;3.52;76.20
28921;BME280;16035;53.594;9.952;2024-01-15T05:51:00;99055.97;;;3.47;76.54
28921;BME280;16035;53.594;9.952;2024-01-15T05:53:00;99061.31;;;3.42;76.51
28921;BME280;16035;53.594;9.952;2024-01-15T05:55:01;99056.97;;;3.36;76.83
28921;BME280;16035;53.594;9.952;2024-01-15T05:57:01;99058.75;;;3.25;76.81
28921;BME280;16035;53.594;9.952;2024-01-15T05:59:01;99065.75;;;3.26;77.29
28921;BME280;16035;53.594;9.952;2024-01-15T06:01:02;99062.31;;;3.31;76.94
28921;BME280;16035;53.594;9.952;2024-01-15T06:03:02;99064.50;;;3.39;77.25
28921;BME280;16035;53.594;9.952;2024-01-15T06:05:03;99069.31;;;3.37;76.78
28921;BME280;16035;53.594;9.952;2024-01-15T06:07:03;99070.41;;;3.36;77.08
28921;BME280;16035;53.594;9.952;2024-01-15T06:09:03;99076.34;;;3.43;76.96
28921;BME280;16035;53.594;9.952;2024-01-15T06:11:07;99068.38;;;3.48;76.76
28921;BME280;16035;53.594;9.952;2024-01-15T06:13:08;99082.56;;;3.44;76.67
28921;BME280;16035;53.594;9.952;2024-01-15T06:15:08;99080.69;;;3.44;77.04
28921;BME280;16035;53.594;9.952;2024-01-15T06:17:09;99063.19;;;3.42;76.65
28921;BME280;16035;53.594;9.952;2024-01-15T06:19:09;99071.88;;;3.49;76.86
28921;BME280;16035;53.594;9.952;2024-01-15T06:21:09;99065.72;;;3.53;77.05
28921;BME280;16035;53.594;9.952;2024-01-15T06:23:12;99072.22;;;3.58;77.04
28921;BME280;16035;53.594;9.952;2024-01-15T06:25:13;99066.25;;;3.55;77.08
28921;BME280;16035;53.594;9.952;2024-01-15T06:27:13;99063.56;;;3.55;76.87
28921;BME280;16035;53.594;9.952;2024-01-15T06:29:14;99053.94;;;3.60;76.93
28921;BME280;16035;53.594;9.952;2024-01-15T06:31:14;99063.38;;;3.62;77.00
28921;BME280;16035;53.594;9.952;2024-01-15T06:33:14;99061.69;;;3.56;76.66
28921;BME280;16035;53.594;9.952;2024-01-15T06:35:15;99067.31;;;3.49;77.13
28921;BME280;16035;53.594;9.952;2024-01-15T06:37:15;99064.09;;;3.52;77.31
28921;BME280;16035;53.594;9.952;2024-01-15T06:39:15;99066.84;;;3.58;76.83
28921;BME280;16035;53.594;9.952;2024-01-15T06:41:16;99064.38;;;3.56;76.67
28921;BME280;16035;53.594;9.952;2024-01-15T06:43:16;99056.31;;;3.56;77.07
28921;BME280;16035;53.594;9.952;2024-01-15T06:45:16;99059.59;;;3.58;77.31
28921;BME280;16035;53.594;9.952;2024-01-15T06:47:17;99062.56;;;3.62;76.59
28921;BME280;16035;53.594;9.952;2024-01-15T06:49:17;99074.41;;;3.66;76.64
28921;BME280;16035;53.594;9.952;2024-01-15T06:51:19;99069.09;;;3.71;76.59
28921;BME280;16035;53.594;9.952;2024-01-15T06:53:19;99069.03;;;3.66;76.36
28921;BME280;16035;53.594;9.952;2024-01-15T06:55:19;99072.78;;;3.65;76.77
28921;BME280;16035;53.594;9.952;2024-01-15T06:57:20;99074.16;;;3.67;76.56
28921;BME280;16035;53.594;9.952;2024-01-15T06:59:20;99072.28;;;3.68;76.76
28921;BME280;16035;53.594;9.952;2024-01-15T07:01:21;99069.53;;;3.58;75.88
28921;BME280;16035;53.594;9.952;2024-01-15T07:03:21;99078.09;;;3.54;76.37
28921;BME280;16035;53.594;9.952;2024-01-15T07:05:21;99072.41;;;3.51;76.13
28921;BME280;16035;53.594;9.952;2024-01-15T07:07:22;99076.97;;;3.50;76.29
28921;BME280;16035;53.594;9.952;2024-01-15T07:09:22;99069.25;;;3.59;76.27
28921;BME280;16035;53.594;9.952;2024-01-15T07:11:23;99073.59;;;3.65;76.21
28921;BME280;16035;53.594;9.952;2024-01-15T07:13:23;99074.94;;;3.63;75.73
28921;BME280;16035;53.594;9.952;2024-01-15T07:15:24;99080.81;;;3.60;75.63
28921;BME280;16035;53.594;9.952;2024-01-15T07:17:24;99079.19;;;3.59;75.17
28921;BME280;16035;53.594;9.952;2024-01-15T07:19:24;99083.44;;;3.54;75.91
28921;BME280;16035;53.594;9.952;2024-01-15T07:21:25;99094.75;;;3.57;75.79
28921;BME280;16035;53.594;9.952;2024-01-15T07:23:25;99088.06;;;3.59;75.93
28921;BME280;16035;53.594;9.952;2024-01-15T07:25:25;99088.38;;;3.63;75.90
28921;BME280;16035;53.594;9.952;2024-01-15T07:27:26;99095.09;;;3.65;75.93
28921;BME280;16035;53.594;9.952;2024-01-15T07:29:26;99093.47;;;3.64;75.12
28921;BME280;16035;53.594;9.952;2024-01-15T07:31:27;99097.50;;;3.62;75.41
28921;BME280;16035;53.594;9.952;2024-01-15T07:33:27;99094.28;;;3.65;75.24
28921;BME280;16035;53.594;9.952;2024-01-15T07:35:27;99094.88;;;3.72;74.85
28921;BME280;16035;53.594;9.952;2024-01-15T07:37:28;99099.50;;;3.76;75.05
28921;BME280;16035;53.594;9.952;2024-01-15T07:39:28;99105.41;;;3.78;74.69
28921;BME280;16035;53.594;9.952;2024-01-15T07:41:30;99102.94;;;3.72;74.58
28921;BME280;16035;53.594;9.952;2024-01-15T07:43:31;99107.25;;;3.73;74.79
28921;BME280;16035;53.594;9.952;2024-01-15T07:45:31;99098.91;;;3.74;74.93
28921;BME280;16035;53.594;9.952;2024-01-15T07:47:31;99105.09;;;3.75;74.81
28921;BME280;16035;53.594;9.952;2024-01-15T07:49:32;99106.22;;;3.79;74.60
28921;BME280;16035;53.594;9.952;2024-01-15T07:51:32;99104.59;;;3.78;74.32
28921;BME280;16035;53.594;9.952;2024-01-15T07:53:32;99111.81;;;3.72;73.85
28921;BME280;16035;53.594;9.952;2024-01-15T07:55:32;99111.31;;;3.75;73.83
28921;BME280;16035;53.594;9.952;2024-01-15T07:57:33;99113.47;;;3.78;74.54
28921;BME280;16035;53.594;9.952;2024-01-15T07:59:34;99114.88;;;3.86;74.50
28921;BME280;16035;53.594;9.952;2024-01-15T08:01:35;99117.88;;;3.90;73.45
28921;BME280;16035;53.594;9.952;2024-01-15T08:03:36;99114.38;;;3.89;74.01
28921;BME280;16035;53.594;9.952;2024-01-15T08:05:36;99125.63;;;3.86;73.84
28921;BME280;16035;53.594;9.952;2024-01-15T08:07:37;99123.72;;;3.82;73.41
28921;BME280;16035;53.594;9.952;2024-01-15T08:09:37;99124.78;;;3.80;74.24
28921;BME280;16035;53.594;9.952;2024-01-15T08:11:39;99120.75;;;3.83;73.99
28921;BME280;16035;53.594;9.952;2024-01-15T08:13:40;99125.16;;;3.94;73.81
28921;BME280;16035;53.594;9.952;2024-01-15T08:15:41;99124.66;;;3.97;74.00
28921;BME280;16035;53.594;9.952;2024-01-15T08:17:41;99125.69;;;3.96;74.14
28921;BME280;16035;53.594;9.952;2024-01-15T08:19:42;99120.59;;;3.95;74.39
28921;BME280;16035;53.594;9.952;2024-01-15T08:21:43;99127.06;;;3.99;73.81
28921;BME280;16035;53.594;9.952;2024-01-15T08:23:43;99120.34;;;4.01;73.64
28921;BME280;16035;53.594;9.952;2024-01-15T08:25:43;99128.97;;;3.98;73.61
28921;BME280;16035;53.594;9.952;2024-01-15T08:27:44;99134.81;;;3.90;73.46
28921;BME280;16035;53.594;9.952;2024-01-15T08:29:44;99132.06;;;3.85;74.08
28921;BME280;16035;53.594;9.952;2024-01-15T08:31:45;99136.97;;;3.93;74.39
28921;BME280;16035;53.594;9.952;2024-01-15T08:33:45;99137.53;;;3.95;74.53
28921;BME280;16035;53.594;9.952;2024-01-15T08:35:46;99142.94;;;4.00;73.98
28921;BME280;16035;53.594;9.952;2024-01-15T08:37:46;99143.50;;;4.02;74.22
28921;BME280;16035;53.594;9.952;2024-01-15T08:39:46;99147.56;;;4.10;73.75
28921;BME280;16035;53.594;9.952;2024-01-15T08:41:47;99151.91;;;4.11;74.43
28921;BME280;16035;53.594;9.952;2024-01-15T08:43:47;99141.66;;;4.08;74.07
28921;BME280;16035;53.594;9.952;2024-01-15T08:45:47;99148.91;;;4.08;73.81
28921;BME280;16035;53.594;9.952;2024-01-15T08:47:48;99157.75;;;4.03;73.59
28921;BME280;16035;53.594;9.952;2024-01-15T08:49:48;99151.81;;;4.01;74.31
28921;BME280;16035;53.594;9.952;2024-01-15T08:51:49;99157.44;;;3.99;73.85
28921;BME280;16035;53.594;9.952;2024-01-15T08:53:49;99157.09;;;3.91;73.98
28921;BME280;16035;53.594;9.952;2024-01-15T08:55:49;99161.69;;;3.90;74.37
28921;BME280;16035;53.594;9.952;2024-01-15T08:57:50;99161.19;;;3.93;74.26
28921;BME280;16035;53.594;9.952;2024-01-15T08:59:50;99157.94;;;3.96;74.56
28921;BME280;16035;53.594;9.952;2024-01-15T09:01:54;99156.84;;;3.92;73.98
28921;BME280;16035;53.594;9.952;2024-01-15T09:03:57;99155.25;;;3.96;74.24
28921;BME280;16035;53.594;9.952;2024-01-15T09:05:57;99159.03;;;3.95;74.36
28921;BME280;16035;53.594;9.952;2024-01-15T09:07:57;99160.06;;;3.89;74.68
28921;BME280;16035;53.594;9.952;2024-01-15T09:09:58;99159.78;;;3.91;74.42
28921;BME280;16035;53.594;9.952;2024-01-15T09:11:59;99169.75;;;3.90;74.39
28921;BME280;16035;53.594;9.952;2024-01-15T09:13:59;99165.47;;;3.94;74.51
28921;BME280;16035;53.594;9.952;2024-01-15T09:16:00;99171.06;;;3.88;74.86
28921;BME280;16035;53.594;9.952;2024-01-15T09:18:01;99173.22;;;3.91;74.46
28921;BME280;16035;53.594;9.952;2024-01-15T09:20:02;99169.75;;;3.90;74.52
28921;BME280;16035;53.594;9.952;2024-01-15T09:22:04;99182.09;;;3.91;74.62
28921;BME280;16035;53.594;9.952;2024-01-15T09:24:05;99181.84;;;3.93;74.68
28921;BME280;16035;53.594;9.952;2024-01-15T09:26:08;99182.81;;;3.82;74.45
28921;BME280;16035;53.594;9.952;2024-01-15T09:28:09;99178.97;;;3.72;74.77
28921;BME280;16035;53.594;9.952;2024-01-15T09:30:10;99178.53;;;3.80;75.09
28921;BME280;16035;53.594;9.952;2024-01-15T09:32:12;99187.94;;;3.83;75.16
28921;BME280;16035;53.594;9.952;2024-01-15T09:34:12;99183.31;;;3.78;74.65
28921;BME280;16035;53.594;9.952;2024-01-15T09:36:13;99193.75;;;3.75;74.97
28921;BME280;16035;53.594;9.952;2024-01-15T09:38:13;99193.22;;;3.73;74.69
28921;BME280;16035;53.594;9.952;2024-01-15T09:40:14;99203.88;;;3.63;74.49
28921;BME280;16035;53.594;9.952;2024-01-15T09:42:15;99211.53;;;3.49;74.98
28921;BME280;16035;53.594;9.952;2024-01-15T09:44:17;99219.75;;;3.42;75.42
28921;BME280;16035;53.594;9.952;2024-01-15T09:46:17;99224.53;;;3.35;75.78
28921;BME280;16035;53.594;9.952;2024-01-15T09:48:18;99226.56;;;3.28;75.61
28921;BME280;16035;53.594;9.952;2024-01-15T09:50:18;99221.63;;;3.20;75.50
28921;BME280;16035;53.594;9.952;2024-01-15T09:52:19;99221.25;;;3.11;75.71
28921;BME280;16035;53.594;9.952;2024-01-15T09:54:19;99218.34;;;3.13;76.07
28921;BME280;16035;53.594;9.952;2024-01-15T09:56:20;99235.19;;;3.08;75.76
28921;BME280;16035;53.594;9.952;2024-01-15T09:58:20;99238.53;;;2.98;75.79
28921;BME280;16035;53.594;9.952;2024-01-15T10:00:21;99231.56;;;2.81;75.99
28921;BME280;16035;53.594;9.952;2024-01-15T10:02:22;99240.75;;;2.85;76.38
28921;BME280;16035;53.594;9.952;2024-01-15T10:04:22;99242.97;;;2.88;76.24
28921;BME280;16035;53.594;9.952;2024-01-15T10:06:23;99241.81;;;2.84;76.15
28921;BME280;16035;53.594;9.952;2024-01-15T10:08:25;99235.91;;;2.82;76.43
28921;BME280;16035;53.594;9.952;2024-01-15T10:10:25;99226.94;;;2.93;76.45
28921;BME280;16035;53.594;9.952;2024-01-15T10:12:26;99232.13;;;2.99;76.23
28921;BME280;16035;53.594;9.952;2024-01-15T10:14:27;99233.22;;;3.03;76.47
28921;BME280;16035;53.594;9.952;2024-01-15T10:16:27;99234.56;;;3.01;75.84
28921;BME280;16035;53.594;9.952;2024-01-15T10:18:27;99236.66;;;2.99;76.37
28921;BME280;16035;53.594;9.952;2024-01-15T10:20:28;99234.28;;;3.02;76.47
28921;BME280;16035;53.594;9.952;2024-01-15T10:22:28;99236.16;;;3.02;76.14
28921;BME280;16035;53.594;9.952;2024-01-15T10:24:28;99240.25;;;3.04;76.47
28921;BME280;16035;53.594;9.952;2024-01-15T10:26:29;99253.78;;;3.15;76.49
28921;BME280;16035;53.594;9.952;2024-01-15T10:28:30;99245.78;;;3.20;76.41
28921;BME280;16035;53.594;9.952;2024-01-15T10:30:31;99259.16;;;3.15;76.23
28921;BME280;16035;53.594;9.952;2024-01-15T10:32:32;99251.75;;;3.22;76.56
28921;BME280;16035;53.594;9.952;2024-01-15T10:34:32;99247.94;;;3.18;76.46
28921;BME280;16035;53.594;9.952;2024-01-15T10:36:33;99262.38;;;3.17;76.77
28921;BME280;16035;53.594;9.952;2024-01-15T10:38:33;99247.41;;;3.21;76.50
28921;BME280;16035;53.594;9.952;2024-01-15T10:40:33;99247.78;;;3.29;76.80
28921;BME280;16035;53.594;9.952;2024-01-15T10:42:34;99247.72;;;3.24;76.34
28921;BME280;16035;53.594;9.952;2024-01-15T10:44:34;99250.09;;;3.21;76.46
28921;BME280;16035;53.594;9.952;2024-01-15T10:46:35;99257.41;;;3.25;76.24